San Austin — WDE5041 — position and weather

sailwx.info

Track history (hours):
 
Tides and Currents Weather Stations Pressure Air Temp Water Temp Dewpoint Dewpoint Depression Visibility Wind Speed Wind Dir Waves Ship Positions

San Austin

Owner: Buffalo Mariner Service, Inc., Houston, TX. More information available from US FCC via Universal Licensing System and Coast Guard Vessel Documentation Center.

Last reported at 2017-Sep-19 21:01 UTC. Time now 2017-Sep-22 04:44 UTC.
Position N 30°03' W 093°43'.

Length 20 m; draft 3 m.

Type: Tug. MMSI: 367361210.

Date/timePositionNaut miles runAvg speedWind from/ knotsBaromVisibWave heightAir tempDewpointWater temp
2017-Sep-19 21:01N 30°03' W 093°43'2 5.6
2017-Sep-19 20:45N 30°04' W 093°41'1 5.7
2017-Sep-19 20:29N 30°04' W 093°39'3 5.3
2017-Sep-19 19:59N 30°04' W 093°36'2 4.9
2017-Sep-19 19:30N 30°04' W 093°33'2 5.0
2017-Sep-19 19:00N 30°04' W 093°30'3 5.1
2017-Sep-19 18:31N 30°04' W 093°27'3 5.0
2017-Sep-19 18:00N 30°04' W 093°25'2 4.9
2017-Sep-19 17:30N 30°04' W 093°22'2 4.3
2017-Sep-19 17:01N 30°05' W 093°20'3 5.7
2017-Sep-19 16:30N 30°08' W 093°20'3 6.3
2017-Sep-19 16:01N 30°11' W 093°19'0 0.6
2017-Sep-19 15:30N 30°11' W 093°18'0 0.0
2017-Sep-19 15:01N 30°11' W 093°18'0 0.0
2017-Sep-19 14:30N 30°11' W 093°18'0 0.0
2017-Sep-19 14:00N 30°11' W 093°18'0 0.0
2017-Sep-19 13:30N 30°11' W 093°18'0 0.0
2017-Sep-19 13:00N 30°11' W 093°18'0 0.2
2017-Sep-19 12:31N 30°11' W 093°18'0 0.0
2017-Sep-19 12:01N 30°11' W 093°18'0 0.0
2017-Sep-19 11:30N 30°11' W 093°18'0 0.0
2017-Sep-19 11:01N 30°11' W 093°18'0 0.0
2017-Sep-19 10:31N 30°11' W 093°18'0 0.0
2017-Sep-19 10:00N 30°11' W 093°18'0 0.0
2017-Sep-19 09:31N 30°11' W 093°18'0 0.0
2017-Sep-19 09:01N 30°11' W 093°18'0 0.0
2017-Sep-19 08:31N 30°11' W 093°18'0 0.0
2017-Sep-19 08:01N 30°11' W 093°18'0 0.1
2017-Sep-19 07:30N 30°11' W 093°18'0 0.1
2017-Sep-19 07:01N 30°11' W 093°18'0 0.0
2017-Sep-19 06:30N 30°11' W 093°18'0 0.0
2017-Sep-19 06:00N 30°11' W 093°18'0 0.4
2017-Sep-19 05:30N 30°11' W 093°18'0 0.0
2017-Sep-19 05:01N 30°11' W 093°18'0 0.0
2017-Sep-19 04:31N 30°11' W 093°18'0 0.0
2017-Sep-19 04:01N 30°11' W 093°18'0 0.0
2017-Sep-19 03:31N 30°11' W 093°18'0 0.0
2017-Sep-19 03:00N 30°11' W 093°18'0 0.0
2017-Sep-19 02:31N 30°11' W 093°18'0 0.0
2017-Sep-19 02:01N 30°11' W 093°18'0 0.0
2017-Sep-19 01:31N 30°11' W 093°18'0 0.0
2017-Sep-19 01:00N 30°11' W 093°18'0 0.0
2017-Sep-19 00:30N 30°11' W 093°18'0 0.0
2017-Sep-19 00:01N 30°11' W 093°18'0 0.0
2017-Sep-18 23:30N 30°11' W 093°18'0 0.0
2017-Sep-18 23:01N 30°11' W 093°18'0 0.0
2017-Sep-18 22:30N 30°11' W 093°18'0 0.0
2017-Sep-18 22:01N 30°11' W 093°18'0 0.0
2017-Sep-18 21:31N 30°11' W 093°18'0 0.0
2017-Sep-18 21:00N 30°11' W 093°18'0 0.0
2017-Sep-18 20:31N 30°11' W 093°18'0 0.0
2017-Sep-18 20:01N 30°11' W 093°18'0 0.0
2017-Sep-18 19:30N 30°11' W 093°18'0 0.0
2017-Sep-18 19:01N 30°11' W 093°18'0 0.0
2017-Sep-18 18:31N 30°11' W 093°18'0 0.0
2017-Sep-18 18:00N 30°11' W 093°18'0 0.0
2017-Sep-18 17:30N 30°11' W 093°18'0 0.0
2017-Sep-18 17:01N 30°11' W 093°18'0 0.0
2017-Sep-18 16:31N 30°11' W 093°18'0 0.0
2017-Sep-18 16:00N 30°11' W 093°18'0 0.0
2017-Sep-18 15:31N 30°11' W 093°18'2 3.9
2017-Sep-18 15:00N 30°09' W 093°20'3 6.1
2017-Sep-18 14:30N 30°06' W 093°20'2 4.8
2017-Sep-18 14:00N 30°04' W 093°21'1 1.2
2017-Sep-18 13:31N 30°04' W 093°21'0 0.0
2017-Sep-18 13:00N 30°04' W 093°21'0 0.3
2017-Sep-18 12:31N 30°04' W 093°21'0 0.0
2017-Sep-18 12:00N 30°04' W 093°21'2 3.5
2017-Sep-18 11:30N 30°04' W 093°23'3 5.6
2017-Sep-18 11:01N 30°04' W 093°27'3 5.9
2017-Sep-18 10:30N 30°04' W 093°30'10 6.0
2017-Sep-18 08:48N 30°03' W 093°42'1 4.6
2017-Sep-18 08:30N 30°03' W 093°43'0 0.5
2017-Sep-18 07:58N 30°03' W 093°44'68 4.4
2017-Sep-17 16:36N 29°32' W 094°53'1 7.4
2017-Sep-17 16:30N 29°32' W 094°54'4 7.6
2017-Sep-17 16:00N 29°35' W 094°56'4 7.7
2017-Sep-17 15:30N 29°39' W 094°58'4 7.5
2017-Sep-17 15:00N 29°42' W 095°00'3 6.7
2017-Sep-17 14:31N 29°44' W 095°03'3 3.0
2017-Sep-17 13:25N 29°46' W 095°06'0 0.0
2017-Sep-17 01:28N 29°47' W 095°06'0 0.0
2017-Sep-16 13:28N 29°46' W 095°06'1 2.1
2017-Sep-16 13:00N 29°45' W 095°06'1 0.1
2017-Sep-16 04:53N 29°46' W 095°07'1 1.9
2017-Sep-16 04:16N 29°45' W 095°06'0 1.6
2017-Sep-16 03:57N 29°46' W 095°05'3 6.1
2017-Sep-16 03:28N 29°44' W 095°03'3 6.0
2017-Sep-16 03:01N 29°42' W 095°00'4 6.4
2017-Sep-16 02:27N 29°39' W 094°58'3 6.9
2017-Sep-16 02:01N 29°36' W 094°57'4 7.8
2017-Sep-16 01:30N 29°33' W 094°54'4 7.4
2017-Sep-16 01:00N 29°30' W 094°52'71 5.3
2017-Sep-15 11:41N 30°04' W 093°41'1 6.6
2017-Sep-15 11:29N 30°04' W 093°39'3 6.6
2017-Sep-15 11:00N 30°04' W 093°35'3 6.6
2017-Sep-15 10:31N 30°04' W 093°32'3 6.7
2017-Sep-15 10:01N 30°04' W 093°28'3 6.8
2017-Sep-15 09:31N 30°04' W 093°24'3 5.9
2017-Sep-15 09:01N 30°04' W 093°21'2 4.9
2017-Sep-15 08:30N 30°07' W 093°20'3 7.0
2017-Sep-15 08:01N 30°10' W 093°19'1 1.8
2017-Sep-15 07:31N 30°11' W 093°18'0 0.0
2017-Sep-15 07:01N 30°11' W 093°18'0 0.0
2017-Sep-15 06:31N 30°11' W 093°18'0 0.2
2017-Sep-15 06:01N 30°11' W 093°18'0 0.0
2017-Sep-15 05:31N 30°11' W 093°18'0 0.0
2017-Sep-15 05:01N 30°11' W 093°18'0 0.0
2017-Sep-15 04:30N 30°11' W 093°18'0 0.0
2017-Sep-15 04:00N 30°11' W 093°18'0 0.0
2017-Sep-15 03:31N 30°11' W 093°18'0 0.0
2017-Sep-15 03:01N 30°11' W 093°18'0 0.0
2017-Sep-15 02:31N 30°11' W 093°18'0 0.0
2017-Sep-15 02:00N 30°11' W 093°18'0 0.0
2017-Sep-15 01:31N 30°11' W 093°18'0 0.0
2017-Sep-15 01:00N 30°11' W 093°18'0 0.0
2017-Sep-15 00:31N 30°11' W 093°18'0 0.0
2017-Sep-15 00:01N 30°11' W 093°18'0 0.1
2017-Sep-14 23:30N 30°11' W 093°18'0 0.3
2017-Sep-14 23:00N 30°11' W 093°18'0 0.0
2017-Sep-14 22:30N 30°11' W 093°18'0 0.0
2017-Sep-14 22:00N 30°11' W 093°18'0 0.0
2017-Sep-14 21:31N 30°11' W 093°18'0 0.0
2017-Sep-14 21:00N 30°11' W 093°18'0 0.0
2017-Sep-14 20:31N 30°11' W 093°18'0 0.0
2017-Sep-14 20:01N 30°11' W 093°18'0 0.0
2017-Sep-14 19:31N 30°11' W 093°18'0 0.0
2017-Sep-14 19:00N 30°11' W 093°18'0 0.0
2017-Sep-14 18:31N 30°11' W 093°18'0 0.0
2017-Sep-14 18:00N 30°11' W 093°18'0 0.0
2017-Sep-14 17:31N 30°11' W 093°18'0 0.0
2017-Sep-14 17:00N 30°11' W 093°18'0 0.0
2017-Sep-14 16:30N 30°11' W 093°18'0 0.0
2017-Sep-14 16:01N 30°11' W 093°18'0 0.0
2017-Sep-14 15:31N 30°11' W 093°18'0 0.0
2017-Sep-14 15:00N 30°11' W 093°18'0 0.0
2017-Sep-14 14:30N 30°11' W 093°18'0 0.0
2017-Sep-14 14:01N 30°11' W 093°18'0 0.0
2017-Sep-14 13:31N 30°11' W 093°18'0 0.0
2017-Sep-14 12:56N 30°11' W 093°18'0 0.0
2017-Sep-14 12:29N 30°11' W 093°18'0 0.0
2017-Sep-14 12:00N 30°11' W 093°18'0 0.0
2017-Sep-14 11:30N 30°11' W 093°18'0 0.0
2017-Sep-14 11:00N 30°11' W 093°18'0 0.0
2017-Sep-14 10:30N 30°11' W 093°18'0 0.0
2017-Sep-14 10:00N 30°11' W 093°18'0 0.0
2017-Sep-14 09:29N 30°11' W 093°18'0 0.0
2017-Sep-14 09:00N 30°11' W 093°18'0 0.0
2017-Sep-14 08:30N 30°11' W 093°18'0 0.0
2017-Sep-14 08:00N 30°11' W 093°18'0 0.0
2017-Sep-14 07:30N 30°11' W 093°18'0 0.0
2017-Sep-14 07:00N 30°11' W 093°18'0 0.0
2017-Sep-14 06:30N 30°11' W 093°18'0 0.0
2017-Sep-14 06:00N 30°11' W 093°18'0 0.0
2017-Sep-14 05:30N 30°11' W 093°18'0 0.0
2017-Sep-14 05:00N 30°11' W 093°18'0 0.0
2017-Sep-14 04:30N 30°11' W 093°18'0 0.0
2017-Sep-14 04:00N 30°11' W 093°18'0 0.0
2017-Sep-14 03:30N 30°11' W 093°18'0 0.0
2017-Sep-14 03:00N 30°11' W 093°18'0 0.0
2017-Sep-14 02:30N 30°11' W 093°18'0 0.0
2017-Sep-14 02:00N 30°11' W 093°18'0 0.0
2017-Sep-14 01:30N 30°11' W 093°18'0 0.0
2017-Sep-14 01:00N 30°11' W 093°18'0 0.0
2017-Sep-14 00:30N 30°11' W 093°18'0 0.0
2017-Sep-14 00:00N 30°11' W 093°18'0 0.0
2017-Sep-13 23:30N 30°11' W 093°18'0 0.0
2017-Sep-13 23:00N 30°11' W 093°18'0 0.0
2017-Sep-13 22:30N 30°11' W 093°18'0 0.0
2017-Sep-13 22:00N 30°11' W 093°18'0 0.9
2017-Sep-13 21:30N 30°11' W 093°19'3 6.7
2017-Sep-13 21:00N 30°08' W 093°20'3 6.1
2017-Sep-13 20:30N 30°05' W 093°20'3 5.3
2017-Sep-13 20:00N 30°04' W 093°23'4 7.2
2017-Sep-13 19:30N 30°04' W 093°27'14 7.2
2017-Sep-13 17:35N 30°03' W 093°43'10 0.8
2017-Sep-13 04:50N 29°59' W 093°54'0 0.0
2017-Sep-13 04:21N 29°59' W 093°54'0 0.0
2017-Sep-13 03:58N 29°59' W 093°54'0 0.0
2017-Sep-13 03:27N 29°59' W 093°54'0 0.0
2017-Sep-13 03:00N 29°59' W 093°54'0 0.2
2017-Sep-13 02:30N 29°59' W 093°54'  
2017-Sep-10 14:00N 29°50' W 093°58'18 4.5
2017-Sep-10 09:57N 30°03' W 093°43'2 4.5
2017-Sep-10 09:30N 30°04' W 093°40'2 4.2
2017-Sep-10 09:00N 30°04' W 093°38'2 3.8
2017-Sep-10 08:30N 30°04' W 093°36'2 3.0
2017-Sep-10 07:58N 30°04' W 093°34'1 2.2
2017-Sep-10 07:30N 30°04' W 093°33'1 2.1
2017-Sep-10 07:00N 30°04' W 093°32'2 4.0
2017-Sep-10 06:30N 30°04' W 093°29'2 3.9
2017-Sep-10 06:00N 30°04' W 093°27'2 3.0
2017-Sep-10 05:29N 30°04' W 093°25'1 2.1
2017-Sep-10 05:00N 30°04' W 093°24'1 1.9
2017-Sep-10 04:30N 30°04' W 093°23'1 1.1
2017-Sep-10 04:00N 30°04' W 093°22'1 1.1
2017-Sep-10 03:30N 30°04' W 093°22'1 2.3
2017-Sep-10 03:00N 30°04' W 093°21'2 4.5
2017-Sep-10 02:30N 30°06' W 093°20'3 6.7
2017-Sep-10 02:00N 30°10' W 093°19'4 7.3
2017-Sep-10 01:31N 30°12' W 093°16'2 4.0
2017-Sep-10 01:00N 30°14' W 093°15'0 0.1
2017-Sep-10 00:30N 30°14' W 093°15'0 0.0
2017-Sep-10 00:00N 30°14' W 093°15'0 0.0
2017-Sep-09 23:30N 30°14' W 093°15'0 0.0
2017-Sep-09 23:00N 30°14' W 093°15'0 0.0
2017-Sep-09 22:30N 30°14' W 093°15'0 0.0
2017-Sep-09 22:00N 30°14' W 093°15'0 0.0
2017-Sep-09 21:30N 30°14' W 093°15'  
Track history (hours):
 
Tides and Currents Weather Stations Pressure Air Temp Water Temp Dewpoint Dewpoint Depression Visibility Wind Speed Wind Dir Waves Ship Positions

San Austin

Owner: Buffalo Mariner Service, Inc., Houston, TX. More information available from US FCC via Universal Licensing System and Coast Guard Vessel Documentation Center.

Last reported at 2017-Sep-19 21:01 UTC. Time now 2017-Sep-22 04:44 UTC.
Position N 30°03' W 093°43'.

Length 20 m; draft 3 m.

Type: Tug. MMSI: 367361210.

Date/timePositionNaut miles runAvg speedWind from/ knotsBaromVisibWave heightAir tempDewpointWater temp
2017-Sep-19 21:01N 30°03' W 093°43'2 5.6
2017-Sep-19 20:45N 30°04' W 093°41'1 5.7
2017-Sep-19 20:29N 30°04' W 093°39'3 5.3
2017-Sep-19 19:59N 30°04' W 093°36'2 4.9
2017-Sep-19 19:30N 30°04' W 093°33'2 5.0
2017-Sep-19 19:00N 30°04' W 093°30'3 5.1
2017-Sep-19 18:31N 30°04' W 093°27'3 5.0
2017-Sep-19 18:00N 30°04' W 093°25'2 4.9
2017-Sep-19 17:30N 30°04' W 093°22'2 4.3
2017-Sep-19 17:01N 30°05' W 093°20'3 5.7
2017-Sep-19 16:30N 30°08' W 093°20'3 6.3
2017-Sep-19 16:01N 30°11' W 093°19'0 0.6
2017-Sep-19 15:30N 30°11' W 093°18'0 0.0
2017-Sep-19 15:01N 30°11' W 093°18'0 0.0
2017-Sep-19 14:30N 30°11' W 093°18'0 0.0
2017-Sep-19 14:00N 30°11' W 093°18'0 0.0
2017-Sep-19 13:30N 30°11' W 093°18'0 0.0
2017-Sep-19 13:00N 30°11' W 093°18'0 0.2
2017-Sep-19 12:31N 30°11' W 093°18'0 0.0
2017-Sep-19 12:01N 30°11' W 093°18'0 0.0
2017-Sep-19 11:30N 30°11' W 093°18'0 0.0
2017-Sep-19 11:01N 30°11' W 093°18'0 0.0
2017-Sep-19 10:31N 30°11' W 093°18'0 0.0
2017-Sep-19 10:00N 30°11' W 093°18'0 0.0
2017-Sep-19 09:31N 30°11' W 093°18'0 0.0
2017-Sep-19 09:01N 30°11' W 093°18'0 0.0
2017-Sep-19 08:31N 30°11' W 093°18'0 0.0
2017-Sep-19 08:01N 30°11' W 093°18'0 0.1
2017-Sep-19 07:30N 30°11' W 093°18'0 0.1
2017-Sep-19 07:01N 30°11' W 093°18'0 0.0
2017-Sep-19 06:30N 30°11' W 093°18'0 0.0
2017-Sep-19 06:00N 30°11' W 093°18'0 0.4
2017-Sep-19 05:30N 30°11' W 093°18'0 0.0
2017-Sep-19 05:01N 30°11' W 093°18'0 0.0
2017-Sep-19 04:31N 30°11' W 093°18'0 0.0
2017-Sep-19 04:01N 30°11' W 093°18'0 0.0
2017-Sep-19 03:31N 30°11' W 093°18'0 0.0
2017-Sep-19 03:00N 30°11' W 093°18'0 0.0
2017-Sep-19 02:31N 30°11' W 093°18'0 0.0
2017-Sep-19 02:01N 30°11' W 093°18'0 0.0
2017-Sep-19 01:31N 30°11' W 093°18'0 0.0
2017-Sep-19 01:00N 30°11' W 093°18'0 0.0
2017-Sep-19 00:30N 30°11' W 093°18'0 0.0
2017-Sep-19 00:01N 30°11' W 093°18'0 0.0
2017-Sep-18 23:30N 30°11' W 093°18'0 0.0
2017-Sep-18 23:01N 30°11' W 093°18'0 0.0
2017-Sep-18 22:30N 30°11' W 093°18'0 0.0
2017-Sep-18 22:01N 30°11' W 093°18'0 0.0
2017-Sep-18 21:31N 30°11' W 093°18'0 0.0
2017-Sep-18 21:00N 30°11' W 093°18'0 0.0
2017-Sep-18 20:31N 30°11' W 093°18'0 0.0
2017-Sep-18 20:01N 30°11' W 093°18'0 0.0
2017-Sep-18 19:30N 30°11' W 093°18'0 0.0
2017-Sep-18 19:01N 30°11' W 093°18'0 0.0
2017-Sep-18 18:31N 30°11' W 093°18'0 0.0
2017-Sep-18 18:00N 30°11' W 093°18'0 0.0
2017-Sep-18 17:30N 30°11' W 093°18'0 0.0
2017-Sep-18 17:01N 30°11' W 093°18'0 0.0
2017-Sep-18 16:31N 30°11' W 093°18'0 0.0
2017-Sep-18 16:00N 30°11' W 093°18'0 0.0
2017-Sep-18 15:31N 30°11' W 093°18'2 3.9
2017-Sep-18 15:00N 30°09' W 093°20'3 6.1
2017-Sep-18 14:30N 30°06' W 093°20'2 4.8
2017-Sep-18 14:00N 30°04' W 093°21'1 1.2
2017-Sep-18 13:31N 30°04' W 093°21'0 0.0
2017-Sep-18 13:00N 30°04' W 093°21'0 0.3
2017-Sep-18 12:31N 30°04' W 093°21'0 0.0
2017-Sep-18 12:00N 30°04' W 093°21'2 3.5
2017-Sep-18 11:30N 30°04' W 093°23'3 5.6
2017-Sep-18 11:01N 30°04' W 093°27'3 5.9
2017-Sep-18 10:30N 30°04' W 093°30'10 6.0
2017-Sep-18 08:48N 30°03' W 093°42'1 4.6
2017-Sep-18 08:30N 30°03' W 093°43'0 0.5
2017-Sep-18 07:58N 30°03' W 093°44'68 4.4
2017-Sep-17 16:36N 29°32' W 094°53'1 7.4
2017-Sep-17 16:30N 29°32' W 094°54'4 7.6
2017-Sep-17 16:00N 29°35' W 094°56'4 7.7
2017-Sep-17 15:30N 29°39' W 094°58'4 7.5
2017-Sep-17 15:00N 29°42' W 095°00'3 6.7
2017-Sep-17 14:31N 29°44' W 095°03'3 3.0
2017-Sep-17 13:25N 29°46' W 095°06'0 0.0
2017-Sep-17 01:28N 29°47' W 095°06'0 0.0
2017-Sep-16 13:28N 29°46' W 095°06'1 2.1
2017-Sep-16 13:00N 29°45' W 095°06'1 0.1
2017-Sep-16 04:53N 29°46' W 095°07'1 1.9
2017-Sep-16 04:16N 29°45' W 095°06'0 1.6
2017-Sep-16 03:57N 29°46' W 095°05'3 6.1
2017-Sep-16 03:28N 29°44' W 095°03'3 6.0
2017-Sep-16 03:01N 29°42' W 095°00'4 6.4
2017-Sep-16 02:27N 29°39' W 094°58'3 6.9
2017-Sep-16 02:01N 29°36' W 094°57'4 7.8
2017-Sep-16 01:30N 29°33' W 094°54'4 7.4
2017-Sep-16 01:00N 29°30' W 094°52'71 5.3
2017-Sep-15 11:41N 30°04' W 093°41'1 6.6
2017-Sep-15 11:29N 30°04' W 093°39'3 6.6
2017-Sep-15 11:00N 30°04' W 093°35'3 6.6
2017-Sep-15 10:31N 30°04' W 093°32'3 6.7
2017-Sep-15 10:01N 30°04' W 093°28'3 6.8
2017-Sep-15 09:31N 30°04' W 093°24'3 5.9
2017-Sep-15 09:01N 30°04' W 093°21'2 4.9
2017-Sep-15 08:30N 30°07' W 093°20'3 7.0
2017-Sep-15 08:01N 30°10' W 093°19'1 1.8
2017-Sep-15 07:31N 30°11' W 093°18'0 0.0
2017-Sep-15 07:01N 30°11' W 093°18'0 0.0
2017-Sep-15 06:31N 30°11' W 093°18'0 0.2
2017-Sep-15 06:01N 30°11' W 093°18'0 0.0
2017-Sep-15 05:31N 30°11' W 093°18'0 0.0
2017-Sep-15 05:01N 30°11' W 093°18'0 0.0
2017-Sep-15 04:30N 30°11' W 093°18'0 0.0
2017-Sep-15 04:00N 30°11' W 093°18'0 0.0
2017-Sep-15 03:31N 30°11' W 093°18'0 0.0
2017-Sep-15 03:01N 30°11' W 093°18'0 0.0
2017-Sep-15 02:31N 30°11' W 093°18'0 0.0
2017-Sep-15 02:00N 30°11' W 093°18'0 0.0
2017-Sep-15 01:31N 30°11' W 093°18'0 0.0
2017-Sep-15 01:00N 30°11' W 093°18'0 0.0
2017-Sep-15 00:31N 30°11' W 093°18'0 0.0
2017-Sep-15 00:01N 30°11' W 093°18'0 0.1
2017-Sep-14 23:30N 30°11' W 093°18'0 0.3
2017-Sep-14 23:00N 30°11' W 093°18'0 0.0
2017-Sep-14 22:30N 30°11' W 093°18'0 0.0
2017-Sep-14 22:00N 30°11' W 093°18'0 0.0
2017-Sep-14 21:31N 30°11' W 093°18'0 0.0
2017-Sep-14 21:00N 30°11' W 093°18'0 0.0
2017-Sep-14 20:31N 30°11' W 093°18'0 0.0
2017-Sep-14 20:01N 30°11' W 093°18'0 0.0
2017-Sep-14 19:31N 30°11' W 093°18'0 0.0
2017-Sep-14 19:00N 30°11' W 093°18'0 0.0
2017-Sep-14 18:31N 30°11' W 093°18'0 0.0
2017-Sep-14 18:00N 30°11' W 093°18'0 0.0
2017-Sep-14 17:31N 30°11' W 093°18'0 0.0
2017-Sep-14 17:00N 30°11' W 093°18'0 0.0
2017-Sep-14 16:30N 30°11' W 093°18'0 0.0
2017-Sep-14 16:01N 30°11' W 093°18'0 0.0
2017-Sep-14 15:31N 30°11' W 093°18'0 0.0
2017-Sep-14 15:00N 30°11' W 093°18'0 0.0
2017-Sep-14 14:30N 30°11' W 093°18'0 0.0
2017-Sep-14 14:01N 30°11' W 093°18'0 0.0
2017-Sep-14 13:31N 30°11' W 093°18'0 0.0
2017-Sep-14 12:56N 30°11' W 093°18'0 0.0
2017-Sep-14 12:29N 30°11' W 093°18'0 0.0
2017-Sep-14 12:00N 30°11' W 093°18'0 0.0
2017-Sep-14 11:30N 30°11' W 093°18'0 0.0
2017-Sep-14 11:00N 30°11' W 093°18'0 0.0
2017-Sep-14 10:30N 30°11' W 093°18'0 0.0
2017-Sep-14 10:00N 30°11' W 093°18'0 0.0
2017-Sep-14 09:29N 30°11' W 093°18'0 0.0
2017-Sep-14 09:00N 30°11' W 093°18'0 0.0
2017-Sep-14 08:30N 30°11' W 093°18'0 0.0
2017-Sep-14 08:00N 30°11' W 093°18'0 0.0
2017-Sep-14 07:30N 30°11' W 093°18'0 0.0
2017-Sep-14 07:00N 30°11' W 093°18'0 0.0
2017-Sep-14 06:30N 30°11' W 093°18'0 0.0
2017-Sep-14 06:00N 30°11' W 093°18'0 0.0
2017-Sep-14 05:30N 30°11' W 093°18'0 0.0
2017-Sep-14 05:00N 30°11' W 093°18'0 0.0
2017-Sep-14 04:30N 30°11' W 093°18'0 0.0
2017-Sep-14 04:00N 30°11' W 093°18'0 0.0
2017-Sep-14 03:30N 30°11' W 093°18'0 0.0
2017-Sep-14 03:00N 30°11' W 093°18'0 0.0
2017-Sep-14 02:30N 30°11' W 093°18'0 0.0
2017-Sep-14 02:00N 30°11' W 093°18'0 0.0
2017-Sep-14 01:30N 30°11' W 093°18'0 0.0
2017-Sep-14 01:00N 30°11' W 093°18'0 0.0
2017-Sep-14 00:30N 30°11' W 093°18'0 0.0
2017-Sep-14 00:00N 30°11' W 093°18'0 0.0
2017-Sep-13 23:30N 30°11' W 093°18'0 0.0
2017-Sep-13 23:00N 30°11' W 093°18'0 0.0
2017-Sep-13 22:30N 30°11' W 093°18'0 0.0
2017-Sep-13 22:00N 30°11' W 093°18'0 0.9
2017-Sep-13 21:30N 30°11' W 093°19'3 6.7
2017-Sep-13 21:00N 30°08' W 093°20'3 6.1
2017-Sep-13 20:30N 30°05' W 093°20'3 5.3
2017-Sep-13 20:00N 30°04' W 093°23'4 7.2
2017-Sep-13 19:30N 30°04' W 093°27'14 7.2
2017-Sep-13 17:35N 30°03' W 093°43'10 0.8
2017-Sep-13 04:50N 29°59' W 093°54'0 0.0
2017-Sep-13 04:21N 29°59' W 093°54'0 0.0
2017-Sep-13 03:58N 29°59' W 093°54'0 0.0
2017-Sep-13 03:27N 29°59' W 093°54'0 0.0
2017-Sep-13 03:00N 29°59' W 093°54'0 0.2
2017-Sep-13 02:30N 29°59' W 093°54'  
2017-Sep-10 14:00N 29°50' W 093°58'18 4.5
2017-Sep-10 09:57N 30°03' W 093°43'2 4.5
2017-Sep-10 09:30N 30°04' W 093°40'2 4.2
2017-Sep-10 09:00N 30°04' W 093°38'2 3.8
2017-Sep-10 08:30N 30°04' W 093°36'2 3.0
2017-Sep-10 07:58N 30°04' W 093°34'1 2.2
2017-Sep-10 07:30N 30°04' W 093°33'1 2.1
2017-Sep-10 07:00N 30°04' W 093°32'2 4.0
2017-Sep-10 06:30N 30°04' W 093°29'2 3.9
2017-Sep-10 06:00N 30°04' W 093°27'2 3.0
2017-Sep-10 05:29N 30°04' W 093°25'1 2.1
2017-Sep-10 05:00N 30°04' W 093°24'1 1.9
2017-Sep-10 04:30N 30°04' W 093°23'1 1.1
2017-Sep-10 04:00N 30°04' W 093°22'1 1.1
2017-Sep-10 03:30N 30°04' W 093°22'1 2.3
2017-Sep-10 03:00N 30°04' W 093°21'2 4.5
2017-Sep-10 02:30N 30°06' W 093°20'3 6.7
2017-Sep-10 02:00N 30°10' W 093°19'4 7.3
2017-Sep-10 01:31N 30°12' W 093°16'2 4.0
2017-Sep-10 01:00N 30°14' W 093°15'0 0.1
2017-Sep-10 00:30N 30°14' W 093°15'0 0.0
2017-Sep-10 00:00N 30°14' W 093°15'0 0.0
2017-Sep-09 23:30N 30°14' W 093°15'0 0.0
2017-Sep-09 23:00N 30°14' W 093°15'0 0.0
2017-Sep-09 22:30N 30°14' W 093°15'0 0.0
2017-Sep-09 22:00N 30°14' W 093°15'0 0.0
2017-Sep-09 21:30N 30°14' W 093°15'  

Dump ship's entire track history